createdAt,value
2022-07-29T00:01:48.287Z,1.33
2022-07-29T00:04:16.120Z,1.60
2022-07-29T00:06:43.827Z,1.30
2022-07-29T00:09:11.314Z,2.00
2022-07-29T00:11:39.095Z,1.55
2022-07-29T00:14:06.592Z,1.20
2022-07-29T00:16:34.383Z,1.30
2022-07-29T00:19:02.428Z,1.30
2022-07-29T00:21:30.456Z,1.38
2022-07-29T00:23:58.006Z,1.60
2022-07-29T00:26:26.146Z,1.50
2022-07-29T00:29:06.372Z,1.55
2022-07-29T00:31:41.085Z,1.40
2022-07-29T00:34:28.552Z,1.60
2022-07-29T00:36:56.140Z,1.45
2022-07-29T00:39:23.898Z,1.90
2022-07-29T00:41:51.606Z,1.40
2022-07-29T00:44:19.122Z,1.42
2022-07-29T00:46:46.685Z,1.30
2022-07-29T00:49:14.321Z,1.30
2022-07-29T00:51:42.133Z,1.38
2022-07-29T00:54:09.682Z,1.73
2022-07-29T00:56:37.272Z,1.48
2022-07-29T00:59:04.773Z,1.38
2022-07-29T01:01:32.404Z,1.42
2022-07-29T01:04:00.211Z,1.40
2022-07-29T01:06:28.058Z,1.60
2022-07-29T01:08:56.747Z,1.60
2022-07-29T01:11:24.976Z,1.60
2022-07-29T01:13:53.877Z,1.80
2022-07-29T01:16:36.542Z,1.83
2022-07-29T01:19:48.707Z,2.13
2022-07-29T01:25:11.118Z,2.03
2022-07-29T01:28:04.481Z,2.35
2022-07-29T01:30:35.831Z,1.90
2022-07-29T01:33:10.986Z,2.17
2022-07-29T01:35:44.024Z,2.90
2022-07-29T01:38:20.881Z,2.08
2022-07-29T01:40:54.001Z,2.13
2022-07-29T01:43:31.783Z,2.35
2022-07-29T01:46:06.739Z,2.38
2022-07-29T01:48:49.767Z,2.15
2022-07-29T01:51:36.874Z,2.40
2022-07-29T01:54:14.317Z,2.55
2022-07-29T01:56:46.183Z,2.55
2022-07-29T01:59:13.834Z,2.40
2022-07-29T02:01:45.134Z,2.60
2022-07-29T02:04:29.513Z,2.80
2022-07-29T02:07:05.848Z,2.83
2022-07-29T02:09:38.789Z,2.50
2022-07-29T02:12:08.783Z,2.92
2022-07-29T02:14:43.148Z,2.65
2022-07-29T02:17:15.776Z,3.78
2022-07-29T02:19:47.105Z,3.63
2022-07-29T02:22:17.679Z,4.35
2022-07-29T02:24:47.242Z,3.83
2022-07-29T02:27:19.922Z,4.30
2022-07-29T02:29:51.303Z,3.83
2022-07-29T02:32:21.288Z,3.58
2022-07-29T02:34:50.755Z,3.63
2022-07-29T02:37:19.669Z,3.63
2022-07-29T02:39:54.797Z,3.88
2022-07-29T02:42:27.586Z,3.70
2022-07-29T02:44:55.946Z,3.55
2022-07-29T02:47:41.829Z,3.78
2022-07-29T02:50:22.106Z,3.38
2022-07-29T02:52:59.789Z,3.55
2022-07-29T02:55:41.229Z,3.13
2022-07-29T02:58:33.398Z,2.88
2022-07-29T03:01:09.815Z,3.00
2022-07-29T03:03:39.715Z,3.05
2022-07-29T03:06:30.930Z,3.03
2022-07-29T03:09:02.884Z,3.42
2022-07-29T03:11:49.293Z,3.90
2022-07-29T03:14:21.025Z,3.40
2022-07-29T03:16:50.459Z,3.37
2022-07-29T03:19:20.135Z,2.92
2022-07-29T03:21:48.482Z,2.95
2022-07-29T03:24:37.390Z,3.67
2022-07-29T03:27:06.256Z,3.45
2022-07-29T03:29:34.718Z,3.40
2022-07-29T03:32:09.152Z,3.60
2022-07-29T03:34:39.150Z,3.25
2022-07-29T03:37:08.213Z,3.45
2022-07-29T03:39:42.350Z,4.40
2022-07-29T03:42:15.820Z,3.53
2022-07-29T03:44:51.172Z,4.00
2022-07-29T03:47:47.972Z,3.80
2022-07-29T03:50:17.109Z,3.53
2022-07-29T03:52:45.431Z,3.45
2022-07-29T03:55:14.460Z,4.00
2022-07-29T03:57:43.719Z,3.50
2022-07-29T04:00:12.330Z,4.00
2022-07-29T04:02:47.922Z,4.15
2022-07-29T04:05:17.552Z,4.40
2022-07-29T04:07:49.246Z,4.60
2022-07-29T04:12:57.735Z,4.70
2022-07-29T04:15:25.416Z,4.40
2022-07-29T04:17:52.969Z,4.85
2022-07-29T04:20:20.450Z,4.70
2022-07-29T04:22:47.904Z,4.65
2022-07-29T04:25:15.322Z,4.90
2022-07-29T04:28:01.084Z,5.22
2022-07-29T04:30:30.519Z,5.68
2022-07-29T04:32:58.156Z,5.30
2022-07-29T04:35:25.708Z,5.47
2022-07-29T04:37:53.438Z,5.28
2022-07-29T04:40:21.222Z,5.47
2022-07-29T04:42:49.469Z,5.03
2022-07-29T04:45:22.344Z,6.03
2022-07-29T04:47:50.991Z,5.70
2022-07-29T04:50:18.668Z,6.22
2022-07-29T04:52:46.206Z,6.93
2022-07-29T04:55:13.645Z,6.53
2022-07-29T04:57:41.432Z,7.10
2022-07-29T05:00:10.201Z,6.78
2022-07-29T05:02:37.770Z,6.47
2022-07-29T05:05:05.677Z,6.63
2022-07-29T05:07:33.474Z,6.13
2022-07-29T05:10:00.882Z,6.80
2022-07-29T05:12:31.035Z,6.60
2022-07-29T05:14:58.548Z,6.50
2022-07-29T05:17:28.131Z,6.53
2022-07-29T05:19:58.441Z,6.68
2022-07-29T05:22:25.967Z,6.13
2022-07-29T05:24:53.420Z,6.28
2022-07-29T05:27:20.948Z,6.65
2022-07-29T05:29:48.510Z,6.00
2022-07-29T05:32:16.139Z,6.22
2022-07-29T05:34:50.981Z,6.20
2022-07-29T05:37:20.884Z,6.30
2022-07-29T05:39:56.315Z,6.20
2022-07-29T05:42:26.568Z,5.40
2022-07-29T05:44:54.543Z,5.95
2022-07-29T05:47:23.119Z,5.65
2022-07-29T05:49:51.467Z,5.63
2022-07-29T05:52:19.191Z,5.55
2022-07-29T05:54:46.666Z,5.55
2022-07-29T05:57:19.355Z,6.18
2022-07-29T05:59:47.786Z,5.15
2022-07-29T06:02:15.498Z,6.32
2022-07-29T06:04:43.160Z,5.40
2022-07-29T06:07:12.222Z,5.88
2022-07-29T06:09:39.737Z,6.38
2022-07-29T06:12:07.411Z,6.07
2022-07-29T06:14:36.099Z,6.03
2022-07-29T06:17:03.615Z,6.30
2022-07-29T06:19:37.355Z,6.55
2022-07-29T06:22:05.664Z,5.97
2022-07-29T06:24:33.193Z,5.95
2022-07-29T06:27:00.646Z,5.80
2022-07-29T06:29:28.094Z,5.85
2022-07-29T06:31:56.448Z,6.30
2022-07-29T06:34:23.942Z,5.95
2022-07-29T06:36:52.152Z,5.97
2022-07-29T06:39:21.834Z,5.88
2022-07-29T06:41:51.509Z,5.57
2022-07-29T06:44:20.195Z,5.55
2022-07-29T06:47:12.486Z,5.60
2022-07-29T06:55:50.269Z,4.80
2022-07-29T06:58:18.968Z,4.97
2022-07-29T07:00:57.841Z,5.35
2022-07-29T07:03:25.952Z,5.90
2022-07-29T07:05:55.117Z,6.10
2022-07-29T07:08:24.631Z,5.50
2022-07-29T07:10:53.633Z,5.80
2022-07-29T07:13:21.165Z,5.60
2022-07-29T07:15:49.438Z,6.30
2022-07-29T07:18:17.874Z,6.35
2022-07-29T07:20:46.218Z,6.13
2022-07-29T07:23:13.838Z,6.25
2022-07-29T07:25:41.586Z,6.00
2022-07-29T07:28:09.297Z,6.20
2022-07-29T07:30:36.754Z,5.80
2022-07-29T07:33:04.392Z,5.90
2022-07-29T07:35:31.876Z,6.03
2022-07-29T07:37:59.706Z,5.60
2022-07-29T07:40:27.476Z,5.70
2022-07-29T07:42:55.047Z,5.63
2022-07-29T07:45:22.939Z,5.50
2022-07-29T07:47:50.602Z,5.45
2022-07-29T07:50:21.129Z,5.03
2022-07-29T07:52:58.543Z,5.32
2022-07-29T07:55:27.202Z,6.25
2022-07-29T07:57:56.032Z,5.32
2022-07-29T08:00:24.029Z,5.07
2022-07-29T08:02:51.809Z,4.95
2022-07-29T08:05:19.467Z,4.90
2022-07-29T08:07:48.308Z,5.18
2022-07-29T08:10:37.119Z,5.43
2022-07-29T08:13:07.156Z,4.57
2022-07-29T08:15:35.197Z,5.00
2022-07-29T08:18:08.627Z,4.60
2022-07-29T08:20:39.847Z,4.90
2022-07-29T08:23:09.679Z,4.22
2022-07-29T08:25:40.123Z,4.95
2022-07-29T08:28:08.432Z,4.87
2022-07-29T08:30:36.474Z,4.47
2022-07-29T08:33:04.458Z,5.55
2022-07-29T08:35:35.573Z,4.95
2022-07-29T08:38:04.409Z,5.30
2022-07-29T08:40:32.839Z,4.97
2022-07-29T08:43:09.279Z,5.20
2022-07-29T08:45:57.217Z,4.53
2022-07-29T08:48:25.794Z,4.25
2022-07-29T08:50:58.053Z,4.03
2022-07-29T08:53:29.422Z,4.38
2022-07-29T08:55:58.425Z,4.97
2022-07-29T08:58:28.275Z,4.07
2022-07-29T09:00:58.161Z,4.40
2022-07-29T09:03:31.572Z,4.35
2022-07-29T09:06:04.553Z,4.50
2022-07-29T09:08:33.783Z,4.22
2022-07-29T09:11:05.443Z,4.43
2022-07-29T09:13:33.446Z,4.20
2022-07-29T09:16:05.650Z,4.65
2022-07-29T09:18:44.662Z,4.85
2022-07-29T09:21:33.774Z,4.57
2022-07-29T09:24:05.369Z,4.28
2022-07-29T09:29:10.938Z,5.25
2022-07-29T09:31:42.959Z,5.10
2022-07-29T09:34:12.299Z,4.65
2022-07-29T09:36:48.966Z,4.47
2022-07-29T09:39:30.454Z,4.80
2022-07-29T09:42:03.093Z,4.45
2022-07-29T09:44:50.057Z,4.43
2022-07-29T09:47:22.673Z,4.65
2022-07-29T09:50:00.328Z,4.70
2022-07-29T09:53:35.589Z,4.82
2022-07-29T09:56:04.918Z,4.25
2022-07-29T09:59:07.533Z,3.83
2022-07-29T10:01:55.583Z,4.10
2022-07-29T10:04:43.757Z,3.67
2022-07-29T10:07:11.603Z,3.63
2022-07-29T10:09:54.272Z,4.05
2022-07-29T10:12:22.274Z,4.15
2022-07-29T10:14:51.284Z,4.20
2022-07-29T10:17:20.204Z,3.55
2022-07-29T10:19:49.892Z,4.22
2022-07-29T10:22:43.337Z,4.60
2022-07-29T10:25:05.353Z,3.90
2022-07-29T10:27:33.432Z,4.20
2022-07-29T10:30:05.729Z,4.32
2022-07-29T10:32:44.898Z,3.22
2022-07-29T10:35:41.096Z,3.47
2022-07-29T10:38:53.815Z,4.10
2022-07-29T10:41:46.700Z,4.05
2022-07-29T10:44:24.648Z,3.55
2022-07-29T10:46:54.421Z,3.92
2022-07-29T10:49:27.991Z,3.47
2022-07-29T10:52:10.460Z,3.00
2022-07-29T10:54:43.746Z,3.05
2022-07-29T10:57:53.510Z,3.25
2022-07-29T11:00:31.966Z,3.20
2022-07-29T11:03:04.417Z,3.00
2022-07-29T11:05:59.896Z,3.40
2022-07-29T11:08:28.350Z,3.80
2022-07-29T11:11:22.076Z,3.10
2022-07-29T11:13:55.956Z,3.65
2022-07-29T11:16:24.926Z,4.13
2022-07-29T11:19:11.425Z,3.20
2022-07-29T11:21:53.966Z,3.25
2022-07-29T11:24:35.083Z,3.75
2022-07-29T11:27:21.870Z,3.15
2022-07-29T11:29:53.461Z,3.78
2022-07-29T11:32:23.682Z,3.30
2022-07-29T11:35:17.392Z,3.00
2022-07-29T11:38:08.221Z,3.50
2022-07-29T11:40:35.783Z,3.03
2022-07-29T11:43:07.261Z,2.97
2022-07-29T11:45:48.126Z,3.60
2022-07-29T11:48:29.197Z,3.03
2022-07-29T11:51:00.532Z,3.25
2022-07-29T11:53:29.049Z,3.35
2022-07-29T11:56:02.542Z,3.20
2022-07-29T11:58:32.442Z,3.20
2022-07-29T12:01:04.723Z,2.67
2022-07-29T12:03:36.404Z,2.70
2022-07-29T12:06:14.846Z,2.72
2022-07-29T12:08:44.361Z,2.42
2022-07-29T12:11:22.380Z,2.55
2022-07-29T12:13:52.510Z,3.30
2022-07-29T12:16:28.022Z,2.50
2022-07-29T12:19:00.216Z,2.90
2022-07-29T12:21:29.397Z,3.47
2022-07-29T12:24:04.826Z,2.90
2022-07-29T12:26:37.542Z,3.10
2022-07-29T12:29:11.317Z,2.70
2022-07-29T12:31:43.662Z,2.90
2022-07-29T12:34:16.592Z,2.78
2022-07-29T12:36:45.585Z,3.35
2022-07-29T12:39:13.482Z,2.85
2022-07-29T12:41:41.017Z,3.45
2022-07-29T12:44:08.864Z,3.28
2022-07-29T12:46:36.712Z,3.00
2022-07-29T12:49:05.452Z,3.17
2022-07-29T12:51:37.503Z,3.25
2022-07-29T12:54:11.745Z,3.28
2022-07-29T12:56:43.303Z,2.80
2022-07-29T12:59:22.975Z,2.10
2022-07-29T13:01:53.015Z,3.45
2022-07-29T13:04:33.142Z,3.00
2022-07-29T13:07:08.128Z,3.20
2022-07-29T13:09:42.702Z,2.83
2022-07-29T13:12:14.217Z,2.10
2022-07-29T13:14:48.768Z,2.63
2022-07-29T13:17:28.721Z,3.00
2022-07-29T13:20:13.389Z,1.98
2022-07-29T13:22:43.370Z,1.70
2022-07-29T13:25:10.991Z,2.33
2022-07-29T13:27:40.538Z,1.85
2022-07-29T13:30:10.402Z,2.35
2022-07-29T13:32:38.654Z,2.38
2022-07-29T13:35:09.254Z,2.45
2022-07-29T13:37:39.349Z,2.30
2022-07-29T13:40:11.366Z,2.20
2022-07-29T13:42:39.337Z,2.22
2022-07-29T13:45:11.768Z,2.03
2022-07-29T13:47:39.415Z,2.40
2022-07-29T13:50:10.800Z,2.25
2022-07-29T13:52:39.194Z,2.22
2022-07-29T13:55:07.924Z,2.05
2022-07-29T13:57:35.649Z,1.83
2022-07-29T14:00:03.675Z,2.38
2022-07-29T14:02:35.871Z,2.38
2022-07-29T14:05:08.041Z,1.73
2022-07-29T14:07:36.727Z,2.10
2022-07-29T14:10:05.142Z,2.05
2022-07-29T14:12:34.080Z,1.85
2022-07-29T14:15:01.973Z,1.98
2022-07-29T14:17:29.512Z,1.65
2022-07-29T14:19:57.045Z,2.00
2022-07-29T14:22:26.139Z,1.95
2022-07-29T14:24:55.058Z,2.13
2022-07-29T14:27:37.910Z,2.15
2022-07-29T14:30:07.793Z,1.88
2022-07-29T14:32:36.064Z,2.00
2022-07-29T14:35:04.219Z,2.13
2022-07-29T14:37:37.495Z,1.83
2022-07-29T14:40:10.454Z,2.45
2022-07-29T14:42:38.568Z,2.65
2022-07-29T14:45:08.947Z,2.55
2022-07-29T14:47:38.753Z,2.17
2022-07-29T14:50:08.166Z,1.90
2022-07-29T14:52:36.097Z,1.90
2022-07-29T14:55:05.481Z,1.80
2022-07-29T14:57:44.451Z,1.90
2022-07-29T15:00:12.597Z,2.33
2022-07-29T15:03:00.335Z,1.60
2022-07-29T15:05:28.453Z,2.00
2022-07-29T15:07:56.042Z,2.13
2022-07-29T15:10:24.851Z,1.85
2022-07-29T15:12:52.525Z,1.95
2022-07-29T15:15:20.455Z,1.70
2022-07-29T15:17:48.741Z,2.03
2022-07-29T15:20:16.692Z,2.08
2022-07-29T15:22:45.220Z,2.03
2022-07-29T15:25:13.272Z,1.73
2022-07-29T15:27:40.960Z,2.10
2022-07-29T15:30:33.517Z,1.98
2022-07-29T15:33:04.055Z,1.90
2022-07-29T15:35:31.584Z,2.10
2022-07-29T15:37:59.413Z,1.70
2022-07-29T15:40:26.902Z,1.80
2022-07-29T15:42:55.059Z,2.20
2022-07-29T15:45:22.903Z,2.25
2022-07-29T15:47:50.422Z,2.40
2022-07-29T15:50:18.726Z,2.45
2022-07-29T15:52:46.950Z,2.22
2022-07-29T15:55:15.640Z,2.10
2022-07-29T15:57:43.503Z,2.03
2022-07-29T16:00:11.957Z,2.10
2022-07-29T16:02:39.581Z,2.28
2022-07-29T16:05:09.456Z,2.40
2022-07-29T16:07:37.796Z,2.13
2022-07-29T16:10:07.802Z,2.20
2022-07-29T16:12:35.406Z,2.28
2022-07-29T16:15:09.116Z,3.08
2022-07-29T16:17:38.871Z,2.70
2022-07-29T16:20:07.374Z,2.30
2022-07-29T16:22:35.136Z,2.20
2022-07-29T16:25:04.157Z,2.70
2022-07-29T16:27:37.598Z,2.60
2022-07-29T16:30:10.309Z,2.30
2022-07-29T16:32:38.111Z,2.20
2022-07-29T16:35:07.148Z,1.90
2022-07-29T16:37:36.586Z,2.65
2022-07-29T16:40:06.353Z,2.30
2022-07-29T16:42:46.754Z,2.10
2022-07-29T16:45:18.027Z,1.95
2022-07-29T16:47:47.367Z,2.00
2022-07-29T16:50:15.002Z,1.95
2022-07-29T16:52:42.579Z,2.03
2022-07-29T16:55:10.164Z,2.08
2022-07-29T16:57:37.703Z,2.22
2022-07-29T17:00:07.115Z,2.63
2022-07-29T17:02:34.658Z,2.42
2022-07-29T17:05:02.747Z,2.90
2022-07-29T17:07:30.441Z,2.95
2022-07-29T17:10:01.952Z,2.33
2022-07-29T17:12:32.367Z,2.88
2022-07-29T17:14:59.785Z,2.85
2022-07-29T17:17:39.351Z,2.58
2022-07-29T17:20:14.919Z,2.10
2022-07-29T17:22:45.344Z,2.50
2022-07-29T17:25:20.815Z,2.40
2022-07-29T17:27:50.886Z,2.50
2022-07-29T17:30:19.052Z,2.70
2022-07-29T17:32:46.666Z,2.50
2022-07-29T17:35:32.749Z,2.10
2022-07-29T17:38:00.307Z,2.08
2022-07-29T17:40:27.833Z,2.30
2022-07-29T17:42:55.291Z,2.47
2022-07-29T17:45:22.830Z,1.83
2022-07-29T17:47:50.347Z,2.38
2022-07-29T17:50:17.954Z,2.20
2022-07-29T17:52:46.519Z,2.15
2022-07-29T17:55:14.138Z,2.75
2022-07-29T17:57:41.700Z,2.30
2022-07-29T18:00:09.805Z,2.33
2022-07-29T18:02:37.668Z,2.97
2022-07-29T18:05:05.659Z,2.70
2022-07-29T18:07:33.750Z,2.70
2022-07-29T18:10:01.332Z,2.45
2022-07-29T18:12:28.981Z,2.38
2022-07-29T18:14:56.481Z,2.50
2022-07-29T18:17:52.757Z,3.40
2022-07-29T18:20:11.981Z,2.58
2022-07-29T18:22:39.526Z,2.90
2022-07-29T18:25:07.891Z,2.72
2022-07-29T18:27:35.424Z,2.72
2022-07-29T18:30:06.475Z,2.22
2022-07-29T18:32:34.103Z,2.60
2022-07-29T18:35:02.796Z,2.67
2022-07-29T18:38:01.727Z,2.83
2022-07-29T18:40:20.970Z,2.65
2022-07-29T18:42:48.431Z,3.35
2022-07-29T18:45:19.334Z,2.67
2022-07-29T18:50:17.170Z,3.03
2022-07-29T18:52:46.497Z,2.60
2022-07-29T18:55:13.950Z,2.15
2022-07-29T18:57:54.452Z,2.50
2022-07-29T19:00:25.234Z,3.70
2022-07-29T19:02:53.016Z,3.92
2022-07-29T19:05:21.731Z,3.25
2022-07-29T19:07:49.279Z,4.38
2022-07-29T19:10:17.110Z,3.58
2022-07-29T19:12:44.663Z,3.97
2022-07-29T19:15:12.309Z,3.88
2022-07-29T19:17:48.596Z,4.22
2022-07-29T19:20:16.375Z,3.33
2022-07-29T19:22:44.131Z,4.03
2022-07-29T19:25:11.648Z,3.42
2022-07-29T19:27:39.447Z,3.03
2022-07-29T19:30:09.426Z,2.97
2022-07-29T19:32:37.662Z,3.10
2022-07-29T19:35:24.234Z,2.30
2022-07-29T19:37:53.606Z,2.70
2022-07-29T19:40:22.190Z,2.58
2022-07-29T19:42:51.525Z,2.65
2022-07-29T19:45:24.899Z,2.85
2022-07-29T19:47:56.540Z,2.60
2022-07-29T19:50:52.032Z,3.05
2022-07-29T19:53:19.564Z,2.45
2022-07-29T19:55:47.021Z,2.72
2022-07-29T19:58:15.355Z,2.42
2022-07-29T20:00:43.091Z,2.22
2022-07-29T20:03:11.140Z,2.40
2022-07-29T20:05:38.876Z,2.30
2022-07-29T20:08:06.327Z,2.33
2022-07-29T20:10:34.047Z,2.65
2022-07-29T20:13:01.617Z,2.67
2022-07-29T20:15:29.225Z,2.60
2022-07-29T20:17:57.434Z,2.38
2022-07-29T20:20:25.977Z,3.00
2022-07-29T20:22:54.241Z,2.80
2022-07-29T20:25:23.286Z,2.65
2022-07-29T20:27:52.467Z,2.95
2022-07-29T20:30:21.730Z,2.95
2022-07-29T20:32:49.990Z,2.58
2022-07-29T20:35:17.599Z,3.22
2022-07-29T20:37:52.045Z,2.63
2022-07-29T20:40:25.884Z,2.58
2022-07-29T20:42:54.977Z,2.30
2022-07-29T20:45:23.967Z,2.72
2022-07-29T20:47:53.150Z,2.65
2022-07-29T20:50:24.082Z,2.40
2022-07-29T20:52:52.636Z,2.35
2022-07-29T20:55:20.960Z,3.05
2022-07-29T20:57:48.584Z,2.83
2022-07-29T21:00:16.298Z,2.75
2022-07-29T21:02:43.965Z,3.10
2022-07-29T21:05:11.475Z,2.75
2022-07-29T21:07:39.039Z,3.28
2022-07-29T21:10:07.082Z,2.80
2022-07-29T21:12:35.473Z,2.45
2022-07-29T21:15:06.323Z,2.85
2022-07-29T21:17:40.647Z,3.10
2022-07-29T21:20:08.897Z,3.28
2022-07-29T21:22:36.329Z,2.65
2022-07-29T21:25:04.947Z,3.50
2022-07-29T21:27:51.044Z,3.78
2022-07-29T21:30:18.608Z,3.80
2022-07-29T21:32:46.225Z,3.25
2022-07-29T21:35:35.842Z,3.30
2022-07-29T21:38:01.649Z,3.88
2022-07-29T21:40:30.356Z,3.20
2022-07-29T21:42:58.009Z,3.30
2022-07-29T21:45:25.560Z,3.92
2022-07-29T21:47:52.988Z,3.80
2022-07-29T21:50:20.606Z,3.72
2022-07-29T21:52:48.059Z,3.42
2022-07-29T21:55:15.914Z,3.83
2022-07-29T21:57:46.015Z,3.80
2022-07-29T22:00:17.390Z,4.10
2022-07-29T22:02:45.317Z,4.30
2022-07-29T22:05:14.206Z,4.55
2022-07-29T22:07:56.298Z,3.92
2022-07-29T22:10:30.519Z,4.32
2022-07-29T22:13:00.391Z,4.35
2022-07-29T22:15:29.030Z,4.43
2022-07-29T22:17:56.655Z,4.50
2022-07-29T22:20:24.920Z,4.30
2022-07-29T22:22:53.159Z,4.55
2022-07-29T22:25:21.612Z,4.15
2022-07-29T22:27:49.165Z,4.32
2022-07-29T22:30:17.347Z,4.53
2022-07-29T22:32:44.963Z,4.47
2022-07-29T22:35:12.549Z,4.15
2022-07-29T22:37:40.255Z,4.38
2022-07-29T22:40:08.427Z,4.22
2022-07-29T22:42:36.191Z,4.35
2022-07-29T22:45:10.592Z,5.20
2022-07-29T22:47:46.150Z,5.00
2022-07-29T22:50:17.169Z,4.95
2022-07-29T22:52:46.870Z,4.57
2022-07-29T22:55:15.144Z,4.80
2022-07-29T22:57:43.146Z,5.40
2022-07-29T23:00:11.903Z,4.55
2022-07-29T23:02:40.348Z,4.90
2022-07-29T23:05:08.977Z,4.82
2022-07-29T23:07:36.568Z,5.28
2022-07-29T23:10:04.698Z,5.40
2022-07-29T23:12:32.256Z,5.80
2022-07-29T23:14:59.774Z,5.68
2022-07-29T23:17:27.277Z,6.70
2022-07-29T23:19:54.879Z,6.30
2022-07-29T23:22:22.319Z,6.18
2022-07-29T23:24:49.755Z,6.85
2022-07-29T23:27:17.454Z,5.72
2022-07-29T23:29:44.942Z,6.15
2022-07-29T23:32:12.359Z,6.45
2022-07-29T23:34:39.859Z,6.07
2022-07-29T23:37:07.335Z,6.75
2022-07-29T23:39:34.895Z,6.90
2022-07-29T23:42:02.952Z,6.70
2022-07-29T23:44:30.559Z,7.13
2022-07-29T23:46:58.473Z,6.90
2022-07-29T23:49:27.014Z,7.15
2022-07-29T23:51:54.474Z,6.63
2022-07-29T23:54:21.934Z,7.68
2022-07-29T23:56:49.402Z,7.97
2022-07-29T23:59:16.883Z,7.32
